Etusivu
METAR-TAF:

METAR-TAF

Lentoasemat :

Scotts Seaplane Base

Crane Lake, Minnesota, Yhdysvallat

Leveyspiiri: 48-15-59N, Pituuspiiri: 092-29-01W, korkeus merenpinnasta: 341 m

Tämänhetkinen sää

Tämä raportti tehtiin 11 minuuttia sitten, kello 20.14 UTC
Tuuli 6 kn pohjoisesta
Lämpötila -9°C
Kosteus 48%
Ilmanpaine 1025 hPa
Näkyvyys: 16.1 km
Pilvistä 3900 ft:n korkeudessa

METAR: KCDD 262014Z AUTO 36006KT 10SM OVC039 M09/M18 A3026 RMK AO2

Aika: 14:25 (20:25 UTC)


TAF: puuttuu

Säähavainnot ja -ennusteet yli 4000 lentoasemalta (METAR- ja TAF-raportit).

Käytössä olevat sääasemat on merkitty karttaan keltaisilla ja punaisilla pisteillä.

Aseta hiiri pisteen päälle nähdäksesi sääaseman nimen.

Klikkaa sitten nähdäksesi säähavainnot ja -ennusteet.

Kartan vaihtaminen: klikkaa mustalla rastilla varustettuja vihreitä pisteitä, niin voit zoomata sisään; viivalla varustettua vihreää pistettä, niin voit zoomata ulos tai vihreitä nuolia, niin pääset viereisille kartoille.


METAR-TAF: